Time;durP1;ratioP1;P1;durP2;ratioP2;P2;SDS_P1;SDS_P2;PMS_P1;PMS_P2;Temp;Humidity;BMP_temperature;BMP_pressure;BME280_temperature;BME280_humidity;BME280_pressure;Samples;Min_cycle;Max_cycle;Signal;HPM_P1;HPM_P2
2023/01/01 00:00:14;;;;;;;75.47;52.60;;;;;;;9.33;100.00;96121.06;5007203;28;24467;-72
2023/01/01 00:02:40;;;;;;;76.50;51.97;;;;;;;9.29;100.00;96122.13;5007374;28;20775;-71
2023/01/01 00:05:08;;;;;;;57.13;41.72;;;;;;;9.21;100.00;96130.28;5003866;28;24429;-71
2023/01/01 00:07:35;;;;;;;42.60;32.05;;;;;;;9.14;100.00;96128.09;5004275;28;24511;-71
2023/01/01 00:12:46;;;;;;;44.90;31.30;;;;;;;9.11;100.00;96130.81;5008115;28;24519;-71
2023/01/01 00:15:13;;;;;;;32.67;26.77;;;;;;;9.06;100.00;96123.31;5005346;28;25308;-71
2023/01/01 00:17:39;;;;;;;40.45;27.55;;;;;;;9.01;100.00;96120.16;5007274;28;24444;-72
2023/01/01 00:20:07;;;;;;;41.25;32.80;;;;;;;8.99;100.00;96121.97;5004927;28;24440;-72
2023/01/01 00:22:33;;;;;;;36.83;28.50;;;;;;;8.93;100.00;96114.50;5000867;28;24554;-72
2023/01/01 00:24:59;;;;;;;34.67;24.58;;;;;;;8.93;100.00;96119.69;5002505;28;24429;-72
2023/01/01 00:27:27;;;;;;;26.20;20.58;;;;;;;8.95;100.00;96110.13;5002276;28;24557;-72
2023/01/01 00:29:54;;;;;;;24.58;18.83;;;;;;;8.90;100.00;96105.19;5009070;28;24472;-71
2023/01/01 00:32:20;;;;;;;23.10;18.90;;;;;;;8.82;100.00;96112.47;4998972;28;24468;-71
2023/01/01 00:34:47;;;;;;;23.25;18.30;;;;;;;8.79;100.00;96115.22;5003409;28;24456;-72
2023/01/01 00:37:14;;;;;;;22.02;18.50;;;;;;;8.71;100.00;96114.75;5008338;28;25033;-71
2023/01/01 00:39:40;;;;;;;26.50;19.27;;;;;;;8.65;100.00;96120.25;5005289;28;24433;-71
2023/01/01 00:42:07;;;;;;;25.47;19.73;;;;;;;8.71;100.00;96119.91;5003599;28;24523;-71
2023/01/01 00:44:35;;;;;;;28.50;19.63;;;;;;;8.58;100.00;96105.97;5006602;28;24443;-71
2023/01/01 00:47:01;;;;;;;21.02;17.70;;;;;;;8.61;100.00;96105.81;5005900;28;24953;-72
2023/01/01 00:49:28;;;;;;;25.92;18.95;;;;;;;8.51;100.00;96109.75;5006326;28;24436;-72
2023/01/01 00:51:54;;;;;;;22.02;19.25;;;;;;;8.43;100.00;96105.81;5000973;28;24539;-72
2023/01/01 00:54:21;;;;;;;22.93;19.90;;;;;;;8.34;100.00;96108.78;5006617;28;24802;-72
2023/01/01 00:56:47;;;;;;;29.25;20.33;;;;;;;8.34;100.00;96103.63;5003091;28;20798;-71
2023/01/01 00:59:13;;;;;;;25.20;19.67;;;;;;;8.32;100.00;96104.63;5004470;28;20785;-71
2023/01/01 01:01:41;;;;;;;23.02;17.85;;;;;;;8.36;100.00;96106.16;4997461;28;20784;-71
2023/01/01 01:04:08;;;;;;;23.40;19.13;;;;;;;8.34;100.00;96106.19;5009815;28;24439;-71
2023/01/01 01:06:35;;;;;;;21.77;17.95;;;;;;;8.35;100.00;96107.06;5009343;28;25290;-71
2023/01/01 01:09:02;;;;;;;26.33;18.95;;;;;;;8.34;100.00;96113.94;5007660;28;21333;-71
2023/01/01 01:11:28;;;;;;;25.48;17.83;;;;;;;8.35;100.00;96115.63;5001510;28;24445;-71
2023/01/01 01:13:56;;;;;;;19.88;16.80;;;;;;;8.40;100.00;96113.69;4999398;28;20776;-71
2023/01/01 01:16:25;;;;;;;25.87;17.57;;;;;;;8.52;100.00;96114.00;5004778;28;21168;-71
2023/01/01 01:18:56;;;;;;;25.05;15.30;;;;;;;8.63;100.00;96107.38;5000744;28;24443;-71
2023/01/01 01:21:25;;;;;;;20.75;14.85;;;;;;;8.90;100.00;96109.53;5002236;28;20695;-71
2023/01/01 01:23:53;;;;;;;17.15;13.57;;;;;;;9.15;100.00;96103.91;4999412;28;20780;-72
2023/01/01 01:26:22;;;;;;;16.23;12.90;;;;;;;9.35;100.00;96115.81;5004778;28;20867;-72
2023/01/01 01:28:49;;;;;;;15.77;11.73;;;;;;;9.37;100.00;96119.97;5005640;28;20789;-71
2023/01/01 01:31:15;;;;;;;16.80;10.82;;;;;;;9.46;100.00;96123.84;5002077;28;25016;-71
2023/01/01 01:33:43;;;;;;;17.27;11.10;;;;;;;9.44;100.00;96115.31;4997038;28;24455;-72
2023/01/01 01:36:12;;;;;;;17.05;10.82;;;;;;;9.51;100.00;96115.84;5005639;28;24459;-71
2023/01/01 01:38:38;;;;;;;12.48;9.77;;;;;;;9.50;100.00;96116.75;4999535;28;24441;-71
2023/01/01 01:41:05;;;;;;;14.35;10.90;;;;;;;9.39;100.00;96112.97;5000645;28;25016;-72
2023/01/01 01:43:50;;;;;;;16.00;10.88;;;;;;;9.39;100.00;96115.56;5004743;28;24517;-71
2023/01/01 01:46:20;;;;;;;19.50;11.82;;;;;;;9.35;100.00;96119.22;5004248;28;20798;-71
2023/01/01 01:48:49;;;;;;;20.92;12.80;;;;;;;9.17;100.00;96122.78;5003984;28;24441;-71
2023/01/01 01:51:22;;;;;;;20.73;12.40;;;;;;;9.10;100.00;96126.59;4997946;28;24460;-71
2023/01/01 01:53:52;;;;;;;18.13;11.90;;;;;;;9.03;100.00;96131.22;4998746;28;24436;-71
2023/01/01 01:56:23;;;;;;;13.93;10.68;;;;;;;9.09;100.00;96130.91;5004001;28;24461;-71
2023/01/01 01:58:50;;;;;;;19.40;10.05;;;;;;;9.15;100.00;96122.84;5005721;28;24531;-71
2023/01/01 02:01:17;;;;;;;12.23;9.52;;;;;;;9.27;100.00;96117.94;5004692;28;24448;-72
2023/01/01 02:03:49;;;;;;;12.75;8.98;;;;;;;9.50;100.00;96135.69;5000383;28;24437;-72
2023/01/01 02:06:18;;;;;;;10.70;9.60;;;;;;;9.45;100.00;96130.78;5005233;28;24435;-72
2023/01/01 02:08:45;;;;;;;12.40;9.57;;;;;;;9.42;100.00;96136.09;5010592;28;20816;-72
2023/01/01 02:11:12;;;;;;;13.20;10.27;;;;;;;9.34;100.00;96151.16;4998814;28;24574;-72
2023/01/01 02:13:38;;;;;;;14.82;10.07;;;;;;;9.23;100.00;96148.28;5008847;28;24440;-72
2023/01/01 02:16:11;;;;;;;10.75;9.55;;;;;;;9.17;100.00;96138.28;5004973;28;25072;-72
2023/01/01 02:18:46;;;;;;;10.65;9.05;;;;;;;9.23;100.00;96134.53;4998028;28;20772;-72
2023/01/01 02:21:17;;;;;;;18.50;9.25;;;;;;;9.32;100.00;96119.38;4996823;28;24429;-71
2023/01/01 02:24:05;;;;;;;14.55;9.05;;;;;;;9.50;100.00;96121.94;5005007;28;24441;-71
2023/01/01 02:26:43;;;;;;;10.25;8.57;;;;;;;9.72;100.00;96132.81;4992322;28;24428;-70
2023/01/01 02:29:27;;;;;;;12.18;8.95;;;;;;;9.65;100.00;96124.53;5002766;28;24806;-70
2023/01/01 02:31:58;;;;;;;11.20;8.55;;;;;;;9.71;100.00;96131.09;5002252;28;24440;-71
2023/01/01 02:34:29;;;;;;;12.48;8.25;;;;;;;9.70;100.00;96126.88;5002531;28;21107;-71
2023/01/01 02:37:00;;;;;;;11.05;8.45;;;;;;;9.67;100.00;96122.69;4994738;28;24456;-70
2023/01/01 02:39:31;;;;;;;13.23;8.88;;;;;;;9.57;100.00;96115.53;5000644;28;24811;-71
2023/01/01 02:41:59;;;;;;;14.13;9.40;;;;;;;9.56;100.00;96119.84;4994743;28;24997;-70
2023/01/01 02:44:30;;;;;;;12.25;9.43;;;;;;;9.52;100.00;96117.50;5002155;28;24792;-70
2023/01/01 02:46:56;;;;;;;12.73;8.30;;;;;;;9.41;100.00;96118.06;4996960;28;20781;-71
2023/01/01 02:49:24;;;;;;;12.80;10.00;;;;;;;9.18;100.00;96125.25;5003048;28;24432;-71
2023/01/01 02:52:04;;;;;;;11.50;9.30;;;;;;;8.96;100.00;96127.28;4997875;28;24437;-71
2023/01/01 02:54:40;;;;;;;12.52;9.50;;;;;;;8.81;100.00;96120.31;5001525;28;24883;-71
2023/01/01 02:57:13;;;;;;;10.45;8.65;;;;;;;8.67;100.00;96121.81;4995707;28;24460;-70
2023/01/01 03:02:41;;;;;;;12.27;9.20;;;;;;;8.39;100.00;96119.78;4999793;28;24452;-71
2023/01/01 03:05:15;;;;;;;15.57;8.48;;;;;;;8.29;100.00;96126.25;4997954;28;21432;-71
2023/01/01 03:07:53;;;;;;;10.68;8.25;;;;;;;8.20;100.00;96121.53;5007937;28;20662;-71
2023/01/01 03:10:23;;;;;;;12.10;8.68;;;;;;;8.11;100.00;96116.81;5003729;28;20749;-71
2023/01/01 03:12:55;;;;;;;12.63;7.63;;;;;;;8.18;100.00;96119.00;4998551;28;21463;-71
2023/01/01 03:15:28;;;;;;;8.15;6.90;;;;;;;8.28;100.00;96127.16;4998438;28;21069;-71
2023/01/01 03:18:01;;;;;;;7.70;6.90;;;;;;;8.45;100.00;96122.06;5001387;28;24439;-71
2023/01/01 03:20:32;;;;;;;8.07;6.10;;;;;;;8.68;100.00;96125.25;5005912;28;20690;-71
2023/01/01 03:23:03;;;;;;;8.95;5.82;;;;;;;8.76;100.00;96128.28;4998781;28;20790;-72
2023/01/01 03:25:33;;;;;;;7.35;5.63;;;;;;;8.91;100.00;96132.69;4999629;28;20733;-71
2023/01/01 03:28:05;;;;;;;6.70;5.38;;;;;;;8.93;100.00;96140.34;4998848;28;21267;-71
2023/01/01 03:30:37;;;;;;;9.93;5.35;;;;;;;8.94;100.00;96140.28;4999508;28;20771;-70
2023/01/01 03:33:07;;;;;;;8.32;5.25;;;;;;;8.92;100.00;96139.50;4996719;28;20832;-71
2023/01/01 03:35:40;;;;;;;10.27;4.55;;;;;;;8.93;100.00;96146.34;5000348;28;24468;-70
2023/01/01 03:38:10;;;;;;;8.20;4.45;;;;;;;8.92;100.00;96155.00;4998297;28;20775;-71
2023/01/01 03:40:39;;;;;;;12.70;4.20;;;;;;;9.00;100.00;96148.63;4999928;28;24448;-71
2023/01/01 03:43:11;;;;;;;8.50;3.88;;;;;;;9.00;100.00;96146.88;5000626;28;25063;-71
2023/01/01 03:45:43;;;;;;;5.97;3.95;;;;;;;9.05;100.00;96147.50;5003533;28;25014;-70
2023/01/01 03:48:11;;;;;;;6.40;4.03;;;;;;;9.07;100.00;96152.56;4998175;28;20860;-71
2023/01/01 03:50:46;;;;;;;6.53;3.83;;;;;;;9.12;100.00;96148.84;5000264;28;24494;-71
2023/01/01 03:53:24;;;;;;;5.35;3.30;;;;;;;9.20;100.00;96146.72;4998213;28;24437;-71
2023/01/01 03:55:58;;;;;;;3.83;2.53;;;;;;;9.24;100.00;96154.31;4995143;28;21138;-71
2023/01/01 03:58:31;;;;;;;4.68;2.60;;;;;;;9.31;100.00;96161.66;4998014;28;20722;-71
2023/01/01 04:01:04;;;;;;;4.65;2.88;;;;;;;9.35;100.00;96162.34;4998367;28;24441;-71
2023/01/01 04:03:32;;;;;;;4.05;3.00;;;;;;;9.31;100.00;96160.84;4998217;28;20825;-71
2023/01/01 04:06:01;;;;;;;5.40;3.33;;;;;;;9.26;100.00;96157.63;5001876;28;25718;-71
2023/01/01 04:08:27;;;;;;;4.40;2.85;;;;;;;9.20;100.00;96157.03;5009181;28;24436;-71
2023/01/01 04:10:59;;;;;;;6.17;2.90;;;;;;;9.11;100.00;96154.09;4995323;28;24443;-71
2023/01/01 04:13:25;;;;;;;4.97;3.33;;;;;;;9.04;100.00;96160.47;4997534;28;24477;-71
2023/01/01 04:15:52;;;;;;;4.53;3.30;;;;;;;9.05;100.00;96154.38;5000293;28;24447;-71
2023/01/01 04:18:19;;;;;;;5.13;2.88;;;;;;;9.03;100.00;96153.63;5002001;28;24448;-71
2023/01/01 04:20:46;;;;;;;5.53;3.00;;;;;;;9.07;100.00;96152.56;4997307;28;20820;-71
2023/01/01 04:23:12;;;;;;;5.75;3.08;;;;;;;9.01;100.00;96153.72;4999282;28;24437;-72
2023/01/01 04:25:39;;;;;;;4.53;2.85;;;;;;;9.01;100.00;96153.72;5000204;28;25164;-70
2023/01/01 04:28:05;;;;;;;5.72;3.30;;;;;;;8.96;100.00;96161.69;4997501;28;24971;-71
2023/01/01 04:30:32;;;;;;;4.90;2.72;;;;;;;8.98;100.00;96159.03;4996719;28;25017;-71
2023/01/01 04:32:58;;;;;;;6.15;3.03;;;;;;;9.02;100.00;96154.56;5006130;28;24440;-70
2023/01/01 04:35:26;;;;;;;5.35;3.15;;;;;;;8.90;100.00;96161.19;4998243;28;24444;-71
2023/01/01 04:37:52;;;;;;;2.88;2.35;;;;;;;8.87;100.00;96154.41;5002638;28;24455;-72
2023/01/01 04:40:19;;;;;;;6.78;2.50;;;;;;;8.92;100.00;96155.00;5003233;28;24437;-71
2023/01/01 04:42:45;;;;;;;3.37;2.30;;;;;;;8.86;100.00;96152.75;5009074;28;24447;-70
2023/01/01 04:45:13;;;;;;;3.70;2.10;;;;;;;8.84;100.00;96171.81;5003688;28;24432;-71
2023/01/01 04:47:40;;;;;;;3.85;2.15;;;;;;;8.88;100.00;96165.56;5006425;28;24967;-72
2023/01/01 04:50:07;;;;;;;6.57;1.95;;;;;;;8.86;100.00;96165.66;4998803;28;24444;-72
2023/01/01 04:52:35;;;;;;;3.55;2.08;;;;;;;8.86;100.00;96164.81;5002557;28;24440;-71
2023/01/01 04:55:02;;;;;;;4.80;2.45;;;;;;;8.86;100.00;96168.25;4997300;28;25005;-70
2023/01/01 04:57:29;;;;;;;3.38;2.00;;;;;;;8.88;100.00;96178.50;5006785;28;24826;-71
2023/01/01 04:59:55;;;;;;;6.35;2.00;;;;;;;8.85;100.00;96174.31;5002762;28;24440;-71
2023/01/01 05:02:22;;;;;;;5.00;1.90;;;;;;;8.82;100.00;96183.94;5004092;28;24440;-71
2023/01/01 05:04:48;;;;;;;3.58;1.90;;;;;;;8.75;100.00;96178.28;5003076;28;24445;-71
2023/01/01 05:07:15;;;;;;;2.97;1.85;;;;;;;8.70;100.00;96175.91;5008657;28;24439;-72
2023/01/01 05:09:42;;;;;;;4.93;1.75;;;;;;;8.68;100.00;96174.31;5003525;28;24444;-72
2023/01/01 05:12:09;;;;;;;5.72;2.13;;;;;;;8.71;100.00;96176.72;5006508;28;24448;-72
2023/01/01 05:14:35;;;;;;;2.92;1.80;;;;;;;8.68;100.00;96187.22;4999088;28;24445;-72
2023/01/01 05:17:02;;;;;;;3.90;2.00;;;;;;;8.65;100.00;96177.03;5003351;28;24482;-72
2023/01/01 05:19:29;;;;;;;5.00;2.13;;;;;;;8.60;100.00;96185.03;5000522;28;24472;-70
2023/01/01 05:21:55;;;;;;;3.70;2.10;;;;;;;8.55;100.00;96186.13;5002519;28;25008;-72
2023/01/01 05:24:22;;;;;;;2.90;1.65;;;;;;;8.46;100.00;96183.09;5000345;28;24437;-72
2023/01/01 05:26:49;;;;;;;5.88;2.28;;;;;;;8.42;100.00;96191.91;4999783;28;24433;-71
2023/01/01 05:29:16;;;;;;;4.72;2.35;;;;;;;8.35;100.00;96185.31;5004030;28;24443;-71
2023/01/01 05:31:42;;;;;;;3.15;2.05;;;;;;;8.31;100.00;96190.69;5006915;28;24448;-70
2023/01/01 05:34:09;;;;;;;3.08;2.20;;;;;;;8.34;100.00;96193.94;4996584;28;24437;-71
2023/01/01 05:36:37;;;;;;;9.73;2.58;;;;;;;8.30;100.00;96195.00;5001450;28;24459;-71
2023/01/01 05:39:05;;;;;;;3.55;2.60;;;;;;;8.35;100.00;96198.22;5001329;28;24433;-72
2023/01/01 05:41:34;;;;;;;4.67;2.40;;;;;;;8.27;100.00;96200.34;4999817;28;24440;-71
2023/01/01 05:44:03;;;;;;;5.95;2.20;;;;;;;8.25;100.00;96202.97;4998374;28;20904;-70
2023/01/01 05:46:30;;;;;;;4.10;2.22;;;;;;;8.20;100.00;96201.53;5001763;28;24436;-71
2023/01/01 05:48:56;;;;;;;4.55;2.70;;;;;;;8.21;100.00;96205.75;4999976;28;24440;-71
2023/01/01 05:51:25;;;;;;;3.67;1.75;;;;;;;8.21;100.00;96205.75;5001886;28;24447;-71
2023/01/01 05:53:52;;;;;;;2.83;1.90;;;;;;;8.22;100.00;96210.00;5000986;28;25010;-71
2023/01/01 05:56:18;;;;;;;3.67;1.70;;;;;;;8.29;100.00;96206.25;4999686;28;24447;-71
2023/01/01 05:58:45;;;;;;;4.18;1.88;;;;;;;8.37;100.00;96204.16;5000504;28;24432;-72
2023/01/01 06:01:15;;;;;;;4.03;1.65;;;;;;;8.37;100.00;96205.88;5003115;28;21347;-70
2023/01/01 06:03:43;;;;;;;3.88;1.85;;;;;;;8.42;100.00;96209.97;5002279;28;20854;-71
2023/01/01 06:06:12;;;;;;;6.60;1.98;;;;;;;8.44;100.00;96217.63;4999226;28;25006;-71
2023/01/01 06:08:38;;;;;;;2.53;1.48;;;;;;;8.50;100.00;96216.50;5005740;28;24455;-71
2023/01/01 06:11:08;;;;;;;2.05;1.48;;;;;;;8.52;100.00;96212.09;5002416;28;24440;-71
2023/01/01 06:13:35;;;;;;;5.73;1.87;;;;;;;8.50;100.00;96219.91;5001502;28;20778;-71
2023/01/01 06:16:02;;;;;;;4.20;1.60;;;;;;;8.54;100.00;96221.44;4999352;28;24464;-71
2023/01/01 06:18:32;;;;;;;2.85;1.45;;;;;;;8.52;100.00;96218.09;5000042;28;20791;-71
2023/01/01 06:21:04;;;;;;;2.83;1.60;;;;;;;8.50;100.00;96224.25;5001807;28;20736;-71
2023/01/01 06:23:30;;;;;;;2.50;1.52;;;;;;;8.52;100.00;96225.00;4998678;28;20667;-71
2023/01/01 06:25:57;;;;;;;3.20;1.67;;;;;;;8.49;100.00;96223.38;5000163;28;20778;-71
2023/01/01 06:28:23;;;;;;;3.47;1.58;;;;;;;8.43;100.00;96223.69;4998120;28;20778;-71
2023/01/01 06:30:50;;;;;;;4.85;1.73;;;;;;;8.45;100.00;96222.72;5002082;28;20850;-71
2023/01/01 06:33:16;;;;;;;8.88;1.70;;;;;;;8.50;100.00;96225.09;4996294;28;24443;-71
2023/01/01 06:35:44;;;;;;;3.60;1.50;;;;;;;8.62;100.00;96224.50;5000222;28;24448;-71
2023/01/01 06:38:10;;;;;;;3.80;1.50;;;;;;;8.66;100.00;96225.19;4999387;28;20798;-70
2023/01/01 06:40:37;;;;;;;3.92;1.25;;;;;;;8.75;100.00;96227.34;5008629;28;24437;-71
2023/01/01 06:43:03;;;;;;;2.58;1.52;;;;;;;8.67;100.00;96232.00;5000554;28;24452;-71
2023/01/01 06:45:30;;;;;;;2.38;1.45;;;;;;;8.61;100.00;96233.16;4996144;28;24437;-71
2023/01/01 06:47:57;;;;;;;2.77;1.33;;;;;;;8.55;100.00;96222.28;5001349;28;24459;-71
2023/01/01 06:50:23;;;;;;;5.97;1.65;;;;;;;8.51;100.00;96220.75;4998780;28;24445;-71
2023/01/01 06:52:51;;;;;;;4.35;1.48;;;;;;;8.40;100.00;96227.25;5006668;28;24444;-71
2023/01/01 06:55:17;;;;;;;6.05;1.80;;;;;;;8.33;100.00;96225.84;5002090;28;24436;-71
2023/01/01 06:57:44;;;;;;;2.75;1.50;;;;;;;8.27;100.00;96222.69;5007384;28;24460;-72
2023/01/01 07:00:11;;;;;;;3.55;2.08;;;;;;;8.26;100.00;96229.59;5007808;28;24440;-71
2023/01/01 07:02:38;;;;;;;34.92;18.35;;;;;;;8.17;100.00;96225.72;5007763;28;25116;-72
2023/01/01 07:05:05;;;;;;;7.05;4.43;;;;;;;8.19;100.00;96228.22;5006824;28;25016;-71
2023/01/01 07:07:31;;;;;;;7.47;1.92;;;;;;;8.19;100.00;96233.38;5007365;28;24436;-71
2023/01/01 07:09:59;;;;;;;12.95;2.10;;;;;;;8.21;100.00;96237.56;5006384;28;24439;-71
2023/01/01 07:12:25;;;;;;;2.75;1.90;;;;;;;8.21;100.00;96234.16;5007969;28;20793;-72
2023/01/01 07:14:52;;;;;;;3.85;1.88;;;;;;;8.22;100.00;96222.91;4998958;28;24444;-72
2023/01/01 07:17:18;;;;;;;3.40;1.80;;;;;;;8.24;100.00;96228.84;5001291;28;24464;-71
2023/01/01 07:19:45;;;;;;;4.38;1.92;;;;;;;8.28;100.00;96229.56;5008193;28;24432;-71
2023/01/01 07:22:12;;;;;;;4.78;1.52;;;;;;;8.35;100.00;96238.69;5001396;28;24444;-71
2023/01/01 07:24:38;;;;;;;5.25;1.73;;;;;;;8.37;100.00;96240.28;5007507;28;21339;-72
2023/01/01 07:27:06;;;;;;;2.70;1.55;;;;;;;8.31;100.00;96242.31;4998335;28;24492;-73
2023/01/01 07:29:33;;;;;;;2.93;1.50;;;;;;;8.30;100.00;96248.38;5001223;28;20833;-71
2023/01/01 07:31:59;;;;;;;3.80;1.60;;;;;;;8.24;100.00;96252.06;4998455;28;25117;-71
2023/01/01 07:34:26;;;;;;;3.33;1.65;;;;;;;8.30;100.00;96253.53;4998135;28;21358;-72
2023/01/01 07:36:52;;;;;;;3.55;1.70;;;;;;;8.34;100.00;96245.56;4996687;28;20775;-71
2023/01/01 07:39:18;;;;;;;4.45;1.80;;;;;;;8.35;100.00;96249.84;4999001;28;20791;-71
2023/01/01 07:41:45;;;;;;;5.70;1.67;;;;;;;8.39;100.00;96253.16;4999374;28;24439;-72
2023/01/01 07:44:13;;;;;;;7.95;1.90;;;;;;;8.46;100.00;96260.53;4998107;28;24432;-71
2023/01/01 07:46:39;;;;;;;2.95;1.73;;;;;;;8.46;100.00;96267.44;4997151;28;24433;-71
2023/01/01 07:49:06;;;;;;;5.93;1.63;;;;;;;8.49;100.00;96272.44;5008262;28;20782;-71
2023/01/01 07:51:32;;;;;;;2.90;1.55;;;;;;;8.51;100.00;96273.22;4996157;28;24491;-71
2023/01/01 07:53:59;;;;;;;4.13;2.05;;;;;;;8.48;100.00;96279.34;4998824;28;24444;-72
2023/01/01 07:56:25;;;;;;;3.80;1.90;;;;;;;8.45;100.00;96279.53;4999387;28;24986;-71
2023/01/01 07:58:51;;;;;;;4.55;2.10;;;;;;;8.50;100.00;96286.22;4999096;28;24475;-71
2023/01/01 08:01:19;;;;;;;6.78;2.20;;;;;;;8.55;100.00;96284.25;4996296;28;24463;-71
2023/01/01 08:03:51;;;;;;;4.72;2.20;;;;;;;8.56;100.00;96286.72;5000160;28;20779;-72
2023/01/01 08:06:18;;;;;;;2.93;1.77;;;;;;;8.61;100.00;96289.97;4993628;28;24847;-71
2023/01/01 08:08:45;;;;;;;6.70;2.33;;;;;;;8.68;100.00;96293.09;5007686;28;20810;-71
2023/01/01 08:11:11;;;;;;;3.08;2.20;;;;;;;8.75;100.00;96286.75;4996522;28;24442;-71
2023/01/01 08:13:37;;;;;;;3.60;2.50;;;;;;;8.76;100.00;96301.31;5004465;28;25361;-71
2023/01/01 08:16:05;;;;;;;7.43;2.45;;;;;;;8.75;100.00;96301.38;4999543;28;20783;-71
2023/01/01 08:18:33;;;;;;;5.03;2.53;;;;;;;8.76;100.00;96308.22;5004876;28;24458;-71
2023/01/01 08:20:59;;;;;;;3.92;2.50;;;;;;;8.76;100.00;96309.06;4999032;28;24444;-71
2023/01/01 08:23:26;;;;;;;3.87;2.17;;;;;;;8.87;100.00;96313.72;5012078;28;25036;-72
2023/01/01 08:25:52;;;;;;;3.15;2.13;;;;;;;8.83;100.00;96307.88;5001209;28;24814;-72
2023/01/01 08:28:19;;;;;;;4.30;2.63;;;;;;;8.82;100.00;96313.91;5005047;28;20766;-72
2023/01/01 08:30:45;;;;;;;5.85;2.60;;;;;;;8.90;100.00;96318.75;5001828;28;24444;-72
2023/01/01 08:33:12;;;;;;;3.75;2.22;;;;;;;8.99;100.00;96320.06;5010356;28;24799;-71
2023/01/01 08:35:42;;;;;;;6.25;3.30;;;;;;;9.02;100.00;96331.06;4998943;28;24994;-71
2023/01/01 08:38:11;;;;;;;5.50;3.50;;;;;;;9.14;100.00;96329.66;4998543;28;20738;-71
2023/01/01 08:40:37;;;;;;;4.38;2.92;;;;;;;9.20;100.00;96321.63;5000676;28;24435;-71
2023/01/01 08:43:04;;;;;;;3.58;2.28;;;;;;;9.28;100.00;96326.41;5005756;28;24444;-72
2023/01/01 08:45:30;;;;;;;5.65;3.30;;;;;;;9.32;100.00;96333.09;4995624;28;24444;-71
2023/01/01 08:47:57;;;;;;;7.27;3.33;;;;;;;9.47;100.00;96336.69;4999758;28;24478;-72
2023/01/01 08:50:23;;;;;;;4.73;3.10;;;;;;;9.50;100.00;96336.53;4999031;28;24447;-71
2023/01/01 08:52:51;;;;;;;4.75;3.70;;;;;;;9.53;100.00;96334.63;4998329;28;24978;-71
2023/01/01 08:55:17;;;;;;;4.50;2.40;;;;;;;9.58;100.00;96330.06;5011147;28;24515;-71
2023/01/01 08:57:44;;;;;;;7.47;2.78;;;;;;;9.75;100.00;96336.97;5010349;28;24448;-71
2023/01/01 09:00:12;;;;;;;6.82;2.90;;;;;;;9.85;100.00;96338.16;5009230;28;24451;-71
2023/01/01 09:02:38;;;;;;;4.57;2.42;;;;;;;9.98;100.00;96332.41;5010972;28;24502;-71
2023/01/01 09:05:06;;;;;;;7.13;3.03;;;;;;;10.10;100.00;96334.34;5008593;28;24437;-71
2023/01/01 09:07:32;;;;;;;5.18;2.60;;;;;;;10.19;100.00;96341.59;5012085;28;24451;-71
2023/01/01 09:10:00;;;;;;;5.33;2.53;;;;;;;10.26;100.00;96336.97;5004254;28;24433;-71
2023/01/01 09:12:27;;;;;;;7.25;2.45;;;;;;;10.31;100.00;96338.44;5003345;28;24444;-71
2023/01/01 09:14:53;;;;;;;4.82;2.55;;;;;;;10.29;100.00;96334.25;5000924;28;24439;-71
2023/01/01 09:17:20;;;;;;;5.87;2.60;;;;;;;10.31;100.00;96333.25;5002421;28;24425;-68
2023/01/01 09:19:46;;;;;;;6.75;2.88;;;;;;;10.34;100.00;96335.66;5000430;28;24447;-71
2023/01/01 09:22:13;;;;;;;4.93;2.65;;;;;;;10.34;100.00;96329.66;5005695;28;24443;-71
2023/01/01 09:24:39;;;;;;;3.67;2.65;;;;;;;10.30;100.00;96328.13;4997706;28;24441;-71
2023/01/01 09:27:07;;;;;;;6.15;2.88;;;;;;;10.28;100.00;96324.81;4997529;28;25017;-71
2023/01/01 09:29:33;;;;;;;5.07;2.80;;;;;;;10.23;100.00;96330.19;5000269;28;24440;-71
2023/01/01 09:32:00;;;;;;;6.65;2.95;;;;;;;10.21;100.00;96334.63;5002963;28;24450;-71
2023/01/01 09:34:26;;;;;;;4.45;2.85;;;;;;;10.20;100.00;96338.13;5000233;28;24433;-71
2023/01/01 09:36:53;;;;;;;4.55;2.95;;;;;;;10.22;100.00;96335.44;4997540;28;24445;-71
2023/01/01 09:39:19;;;;;;;5.40;3.27;;;;;;;10.26;100.00;96342.16;5000008;28;24448;-71
2023/01/01 09:42:02;;;;;;;6.15;2.97;;;;;;;10.31;100.00;96350.53;5000076;28;25041;-71
2023/01/01 09:44:49;;;;;;;4.38;2.83;;;;;;;10.37;100.00;96339.84;5000300;28;24443;-71
2023/01/01 09:47:24;;;;;;;4.95;2.78;;;;;;;10.49;100.00;96346.13;5006812;28;24464;-71
2023/01/01 09:49:54;;;;;;;10.52;2.78;;;;;;;10.63;100.00;96348.81;5004562;28;24433;-71
2023/01/01 09:52:21;;;;;;;6.10;2.45;;;;;;;10.77;100.00;96348.09;5000265;28;24464;-71
2023/01/01 09:54:53;;;;;;;4.45;2.45;;;;;;;10.86;100.00;96361.38;4996165;28;24429;-71
2023/01/01 09:57:24;;;;;;;7.45;2.42;;;;;;;11.00;100.00;96352.84;4992665;28;24800;-71
2023/01/01 09:59:52;;;;;;;5.60;2.83;;;;;;;11.16;100.00;96355.44;4999367;28;20777;-71
2023/01/01 10:02:34;;;;;;;8.77;2.80;;;;;;;11.22;100.00;96349.06;5009184;28;24437;-71
2023/01/01 10:05:07;;;;;;;19.88;11.52;;;;;;;11.32;100.00;96355.41;5008347;28;24439;-71
2023/01/01 10:07:41;;;;;;;15.52;7.38;;;;;;;11.48;100.00;96353.59;5008156;28;24437;-71
2023/01/01 10:10:20;;;;;;;4.88;2.75;;;;;;;11.65;100.00;96357.00;5008588;28;24439;-72
2023/01/01 10:12:54;;;;;;;6.45;3.58;;;;;;;11.80;100.00;96354.34;5001238;28;24436;-71
2023/01/01 10:15:25;;;;;;;10.27;2.97;;;;;;;11.98;100.00;96356.81;4996320;28;24539;-72
2023/01/01 10:17:57;;;;;;;4.30;2.55;;;;;;;12.04;100.00;96366.84;4998813;28;25013;-71
2023/01/01 10:20:28;;;;;;;5.53;3.05;;;;;;;12.12;100.00;96364.59;5003043;28;24451;-71
2023/01/01 10:23:01;;;;;;;6.17;3.10;;;;;;;12.27;100.00;96350.75;5000582;28;24440;-72
2023/01/01 10:25:31;;;;;;;9.90;3.20;;;;;;;12.34;100.00;96339.03;5005820;28;24874;-71
2023/01/01 10:27:59;;;;;;;4.72;2.55;;;;;;;12.45;100.00;96342.72;4998614;28;24431;-72
2023/01/01 10:30:29;;;;;;;6.28;2.88;;;;;;;12.49;100.00;96342.44;4998860;28;24429;-72
2023/01/01 10:32:57;;;;;;;6.90;2.50;;;;;;;12.56;100.00;96337.72;5001650;28;24799;-71
2023/01/01 10:35:30;;;;;;;6.05;2.80;;;;;;;12.64;100.00;96332.03;5001286;28;24445;-71
2023/01/01 10:37:56;;;;;;;8.48;3.00;;;;;;;12.62;100.00;96332.16;4999893;28;24470;-71
2023/01/01 10:40:25;;;;;;;5.57;2.97;;;;;;;12.70;100.00;96331.66;4998973;28;24810;-72
2023/01/01 10:42:53;;;;;;;5.23;3.10;;;;;;;12.82;100.00;96325.69;5001354;28;24495;-72
2023/01/01 10:45:29;;;;;;;8.50;5.20;;;;;;;12.80;100.00;96328.41;5000371;28;24440;-71
2023/01/01 10:48:17;;;;;;;12.93;6.50;;;;;;;12.91;100.00;96326.91;5007145;28;24503;-71
2023/01/01 10:50:46;;;;;;;10.48;6.13;;;;;;;12.94;100.00;96321.47;5004584;28;24535;-71
2023/01/01 10:53:25;;;;;;;9.77;4.10;;;;;;;12.95;100.00;96333.56;5006284;28;24877;-71
2023/01/01 10:55:59;;;;;;;12.20;7.32;;;;;;;12.95;100.00;96326.59;4999763;28;24819;-71
2023/01/01 10:58:32;;;;;;;10.40;6.57;;;;;;;12.99;100.00;96327.25;4995017;28;24996;-71
2023/01/01 11:01:01;;;;;;;11.32;6.30;;;;;;;12.99;100.00;96322.88;5002707;28;25016;-71
2023/01/01 11:03:29;;;;;;;9.00;4.27;;;;;;;13.03;100.00;96331.31;4995490;28;24514;-71
2023/01/01 11:06:04;;;;;;;7.50;3.22;;;;;;;13.08;100.00;96329.25;5004806;28;24433;-71
2023/01/01 11:08:32;;;;;;;6.73;3.17;;;;;;;13.11;100.00;96330.81;5009832;28;24451;-71
2023/01/01 11:11:01;;;;;;;4.43;2.70;;;;;;;13.17;100.00;96333.88;5008792;28;24425;-71
2023/01/01 11:13:29;;;;;;;4.95;2.45;;;;;;;13.32;99.59;96330.31;5004696;28;24448;-71
2023/01/01 11:15:56;;;;;;;7.50;2.47;;;;;;;13.45;99.06;96322.53;5003660;28;25004;-71
2023/01/01 11:18:27;;;;;;;7.88;2.33;;;;;;;13.46;97.75;96315.56;5005200;28;24461;-72
2023/01/01 11:20:57;;;;;;;11.80;2.87;;;;;;;13.54;97.68;96316.75;4995363;28;24439;-71
2023/01/01 11:23:30;;;;;;;11.32;2.45;;;;;;;13.61;93.83;96303.31;5003251;28;24437;-71
2023/01/01 11:25:59;;;;;;;5.03;2.38;;;;;;;13.62;95.34;96310.19;4996647;28;24433;-71
2023/01/01 11:28:27;;;;;;;5.85;2.80;;;;;;;13.63;95.53;96288.44;4993478;28;24440;-72
2023/01/01 11:31:12;;;;;;;3.97;2.10;;;;;;;13.66;94.97;96293.44;4997066;28;24481;-71
2023/01/01 11:33:44;;;;;;;6.60;2.05;;;;;;;13.72;95.08;96298.22;4998718;28;24444;-71
2023/01/01 11:36:21;;;;;;;9.48;2.20;;;;;;;13.79;92.06;96278.66;5007461;28;24439;-72
2023/01/01 11:38:49;;;;;;;8.25;2.35;;;;;;;13.83;91.02;96274.06;5007643;28;24822;-71